createdAt,value
2023-03-15T00:01:59.897Z,11.7
2023-03-15T00:05:01.906Z,11
2023-03-15T00:08:04.589Z,9.6
2023-03-15T00:11:05.802Z,10.7
2023-03-15T00:14:07.775Z,10.7
2023-03-15T00:17:09.741Z,7.5
2023-03-15T00:20:11.695Z,9.2
2023-03-15T00:23:13.661Z,10.4
2023-03-15T00:26:15.663Z,7
2023-03-15T00:29:17.615Z,5.5
2023-03-15T00:32:19.548Z,7.5
2023-03-15T00:35:21.599Z,13.6
2023-03-15T00:38:23.589Z,11.8
2023-03-15T00:41:25.499Z,11.8
2023-03-15T00:44:27.494Z,10.1
2023-03-15T00:47:29.449Z,9.9
2023-03-15T00:50:31.399Z,6.9
2023-03-15T00:53:33.373Z,5.4
2023-03-15T00:56:35.358Z,6.9
2023-03-15T00:59:37.285Z,9
2023-03-15T01:02:39.386Z,8.4
2023-03-15T01:05:41.245Z,6.7
2023-03-15T01:08:43.189Z,8.4
2023-03-15T01:11:45.158Z,11.4
2023-03-15T01:14:47.133Z,11.5
2023-03-15T01:17:49.074Z,9.5
2023-03-15T01:20:51.054Z,13.3
2023-03-15T01:23:52.995Z,7.3
2023-03-15T01:26:54.965Z,9.5
2023-03-15T01:29:56.960Z,6.3
2023-03-15T01:32:59.028Z,6.7
2023-03-15T01:36:01.105Z,5.5
2023-03-15T01:39:03.057Z,9.9
2023-03-15T01:42:04.898Z,9.2
2023-03-15T01:45:06.906Z,9.2
2023-03-15T01:48:08.828Z,10.7
2023-03-15T01:51:10.848Z,6.4
2023-03-15T01:54:12.902Z,7.3
2023-03-15T01:57:14.759Z,6.7
2023-03-15T02:00:16.723Z,7.8
2023-03-15T02:03:18.650Z,8.3
2023-03-15T02:06:20.647Z,8.7
2023-03-15T02:09:22.592Z,3.3
2023-03-15T02:12:24.528Z,9.4
2023-03-15T02:15:26.490Z,8.9
2023-03-15T02:18:28.448Z,9.7
2023-03-15T02:21:30.466Z,13.2
2023-03-15T02:24:32.442Z,14.6
2023-03-15T02:27:34.507Z,7.6
2023-03-15T02:30:36.359Z,6.9
2023-03-15T02:33:38.338Z,7.8
2023-03-15T02:36:40.289Z,6.5
2023-03-15T02:39:42.237Z,7.4
2023-03-15T02:42:44.233Z,3.9
2023-03-15T02:45:46.182Z,10.5
2023-03-15T02:48:48.160Z,3.6
2023-03-15T02:51:50.142Z,7.2
2023-03-15T02:54:52.102Z,3.9
2023-03-15T02:57:54.023Z,5.3
2023-03-15T03:00:56.026Z,8.4
2023-03-15T03:03:57.963Z,5.2
2023-03-15T03:06:59.988Z,5.6
2023-03-15T03:10:01.891Z,7.7
2023-03-15T03:13:03.815Z,7
2023-03-15T03:16:05.764Z,7
2023-03-15T03:19:07.712Z,8.7
2023-03-15T03:22:09.709Z,6.1
2023-03-15T03:25:11.654Z,8.1
2023-03-15T03:28:13.634Z,6.7
2023-03-15T03:31:15.653Z,7.5
2023-03-15T03:34:17.512Z,7
2023-03-15T03:37:19.480Z,7.4
2023-03-15T03:40:21.414Z,6.6
2023-03-15T03:43:23.381Z,9
2023-03-15T03:46:25.389Z,7.3
2023-03-15T03:49:27.272Z,4.4
2023-03-15T03:52:29.279Z,7.1
2023-03-15T03:55:31.217Z,6.6
2023-03-15T03:58:33.181Z,7.3
2023-03-15T04:01:35.189Z,7.4
2023-03-15T04:04:37.213Z,8.4
2023-03-15T04:07:39.111Z,6.9
2023-03-15T04:10:41.060Z,7.7
2023-03-15T04:13:43.040Z,7.9
2023-03-15T04:16:44.976Z,4.7
2023-03-15T04:19:47.159Z,4.4
2023-03-15T04:22:48.906Z,8.5
2023-03-15T04:25:50.865Z,8.6
2023-03-15T04:28:52.838Z,8.9
2023-03-15T04:31:54.879Z,6.4
2023-03-15T04:34:56.775Z,8.9
2023-03-15T04:37:58.773Z,12.5
2023-03-15T04:41:00.712Z,10
2023-03-15T04:44:02.711Z,11.1
2023-03-15T04:47:04.694Z,5.9
2023-03-15T04:50:06.628Z,5.5
2023-03-15T04:53:08.592Z,8.1
2023-03-15T04:56:10.548Z,11.5
2023-03-15T04:59:12.550Z,9.9
2023-03-15T05:02:14.844Z,8.4
2023-03-15T05:05:16.486Z,6.3
2023-03-15T05:08:18.423Z,5
2023-03-15T05:11:20.398Z,7.2
2023-03-15T05:14:22.352Z,9.1
2023-03-15T05:17:24.340Z,8.6
2023-03-15T05:20:26.305Z,5.9
2023-03-15T05:23:28.226Z,5.9
2023-03-15T05:26:30.187Z,10.2
2023-03-15T05:29:32.143Z,4.9
2023-03-15T05:32:34.220Z,6.1
2023-03-15T05:35:36.082Z,7.4
2023-03-15T05:38:38.009Z,11.5
2023-03-15T05:41:39.978Z,7.7
2023-03-15T05:44:41.946Z,6.3
2023-03-15T05:47:43.935Z,6.1
2023-03-15T05:50:45.949Z,4.2
2023-03-15T05:53:47.818Z,7.9
2023-03-15T05:56:49.828Z,7.6
2023-03-15T05:59:53.102Z,6.2
2023-03-15T06:02:53.727Z,8.4
2023-03-15T06:05:55.683Z,8.1
2023-03-15T06:08:57.677Z,7.2
2023-03-15T06:11:59.598Z,6.1
2023-03-15T06:15:01.568Z,7.8
2023-03-15T06:18:03.526Z,8.7
2023-03-15T06:21:05.584Z,8.4
2023-03-15T06:24:07.444Z,7.5
2023-03-15T06:27:09.399Z,6.5
2023-03-15T06:30:11.357Z,11
2023-03-15T06:33:13.359Z,12.1
2023-03-15T06:36:15.265Z,11.4
2023-03-15T06:39:17.243Z,7.8
2023-03-15T06:42:19.188Z,11.3
2023-03-15T06:45:21.136Z,6
2023-03-15T06:48:23.081Z,8.7
2023-03-15T06:51:25.125Z,10.1
2023-03-15T06:54:27.018Z,11.4
2023-03-15T06:57:28.983Z,14.4
2023-03-15T07:00:30.984Z,11.9
2023-03-15T07:03:32.885Z,8.6
2023-03-15T07:06:34.839Z,7.4
2023-03-15T07:09:37.065Z,9.5
2023-03-15T07:12:38.785Z,11
2023-03-15T07:15:40.877Z,12.5
2023-03-15T07:18:42.760Z,10
2023-03-15T07:21:44.732Z,11.6
2023-03-15T07:24:46.626Z,14.1
2023-03-15T07:27:48.625Z,9.2
2023-03-15T07:30:50.570Z,9.1
2023-03-15T07:33:52.503Z,10.6
2023-03-15T07:36:54.479Z,11.2
2023-03-15T07:39:56.480Z,13.6
2023-03-15T07:42:58.380Z,11.2
2023-03-15T07:46:00.370Z,7.7
2023-03-15T07:49:02.319Z,14
2023-03-15T07:52:04.257Z,13.4
2023-03-15T07:55:06.239Z,13.3
2023-03-15T07:58:08.177Z,11
2023-03-15T08:01:10.135Z,11.2
2023-03-15T08:04:12.137Z,11.5
2023-03-15T08:07:14.058Z,11.2
2023-03-15T08:10:16.054Z,11.7
2023-03-15T08:13:18.159Z,11
2023-03-15T08:16:20.050Z,11.8
2023-03-15T08:19:21.950Z,14.8
2023-03-15T08:22:23.911Z,9.7
2023-03-15T08:25:25.852Z,11.4
2023-03-15T08:28:27.889Z,18
2023-03-15T08:31:29.822Z,13.8
2023-03-15T08:34:31.733Z,15.5
2023-03-15T08:37:33.730Z,10.6
2023-03-15T08:40:35.683Z,11.2
2023-03-15T08:43:37.604Z,10.2
2023-03-15T08:46:39.653Z,15.2
2023-03-15T08:49:41.571Z,8.9
2023-03-15T08:52:43.544Z,10.1
2023-03-15T08:55:45.470Z,10
2023-03-15T08:58:47.426Z,12
2023-03-15T09:01:49.498Z,10.7
2023-03-15T09:04:53.342Z,13
2023-03-15T09:07:53.362Z,12.6
2023-03-15T09:10:55.302Z,9.7
2023-03-15T09:13:57.244Z,10.5
2023-03-15T09:16:59.271Z,8.4
2023-03-15T09:20:01.159Z,8
2023-03-15T09:23:03.118Z,8.5
2023-03-15T09:26:05.079Z,13.9
2023-03-15T09:29:07.259Z,10.5
2023-03-15T09:32:09.015Z,11.6
2023-03-15T09:35:10.991Z,10.2
2023-03-15T09:38:12.949Z,5.1
2023-03-15T09:41:14.900Z,5
2023-03-15T09:44:16.871Z,7.8
2023-03-15T09:47:18.840Z,9.4
2023-03-15T09:50:20.861Z,4.3
2023-03-15T09:53:22.782Z,5.6
2023-03-15T09:56:24.859Z,7.3
2023-03-15T09:59:26.717Z,5
2023-03-15T10:02:28.669Z,5.1
2023-03-15T10:05:30.628Z,8.6
2023-03-15T10:08:32.602Z,3.2
2023-03-15T10:11:34.601Z,3.4
2023-03-15T10:14:36.531Z,5
2023-03-15T10:17:38.533Z,5
2023-03-15T10:20:40.435Z,3.7
2023-03-15T10:23:42.536Z,4.5
2023-03-15T10:26:47.404Z,3.1
2023-03-15T10:29:49.412Z,3.6
2023-03-15T10:32:54.400Z,3.9
2023-03-15T10:36:07.721Z,4.1
2023-03-15T10:38:58.329Z,4.2
2023-03-15T10:42:00.326Z,2.4
2023-03-15T10:45:02.274Z,2
2023-03-15T10:48:04.227Z,2.2
2023-03-15T10:51:06.186Z,3
2023-03-15T10:54:08.156Z,1.9
2023-03-15T10:57:10.135Z,3.2
2023-03-15T11:00:12.196Z,2.7
2023-03-15T11:03:14.137Z,2.5
2023-03-15T11:06:16.114Z,1.8
2023-03-15T11:09:18.050Z,1.9
2023-03-15T11:12:19.992Z,2
2023-03-15T11:15:21.953Z,2.8
2023-03-15T11:18:23.923Z,1.8
2023-03-15T11:21:25.915Z,1.2
2023-03-15T11:24:27.925Z,1.4
2023-03-15T11:27:29.833Z,1.5
2023-03-15T11:30:31.799Z,2
2023-03-15T11:33:33.764Z,1.7
2023-03-15T11:36:35.859Z,1.9
2023-03-15T11:39:37.761Z,2.6
2023-03-15T11:42:39.742Z,1.4
2023-03-15T11:45:41.837Z,1.3
2023-03-15T11:48:43.736Z,1.6
2023-03-15T11:51:45.749Z,2
2023-03-15T11:54:47.704Z,1.7
2023-03-15T11:57:49.656Z,2.2
2023-03-15T12:00:54.649Z,2
2023-03-15T12:03:56.579Z,1.8
2023-03-15T12:06:58.532Z,2.2
2023-03-15T12:10:00.522Z,2.2
2023-03-15T12:13:02.453Z,2.1
2023-03-15T12:16:04.462Z,1.8
2023-03-15T12:19:06.436Z,1.8
2023-03-15T12:22:08.397Z,1.6
2023-03-15T12:25:10.390Z,2.6
2023-03-15T12:28:12.330Z,3.1
2023-03-15T12:31:14.376Z,1.9
2023-03-15T12:34:16.291Z,1.8
2023-03-15T12:37:18.229Z,2.3
2023-03-15T12:40:20.223Z,2.3
2023-03-15T12:43:22.151Z,2.3
2023-03-15T12:46:24.239Z,2.1
2023-03-15T12:49:26.185Z,2.4
2023-03-15T12:52:28.196Z,2.8
2023-03-15T12:55:30.183Z,3.1
2023-03-15T12:58:32.097Z,3.2
2023-03-15T13:01:34.493Z,4.1
2023-03-15T13:04:36.000Z,2.4
2023-03-15T13:07:50.568Z,2.8
2023-03-15T13:10:39.954Z,1.9
2023-03-15T13:13:41.908Z,2.1
2023-03-15T13:16:43.869Z,2.6
2023-03-15T13:19:45.861Z,2.3
2023-03-15T13:22:55.365Z,3.5
2023-03-15T13:25:49.785Z,2
2023-03-15T13:28:51.748Z,3
2023-03-15T13:31:53.686Z,2.2
2023-03-15T13:34:55.650Z,2.5
2023-03-15T13:37:57.608Z,2.3
2023-03-15T13:40:59.594Z,1.9
2023-03-15T13:44:01.605Z,1.8
2023-03-15T13:47:03.539Z,1.9
2023-03-15T13:50:05.501Z,1.6
2023-03-15T13:53:07.746Z,1.2
2023-03-15T13:56:09.469Z,2.2
2023-03-15T13:59:11.433Z,1.8
2023-03-15T14:02:13.402Z,2.7
2023-03-15T14:05:15.353Z,2.2
2023-03-15T14:08:17.358Z,2.3
2023-03-15T14:11:19.282Z,3.5
2023-03-15T14:14:21.258Z,1.9
2023-03-15T14:17:23.198Z,4.5
2023-03-15T14:20:25.180Z,2.3
2023-03-15T14:23:27.105Z,2.3
2023-03-15T14:26:29.093Z,2.8
2023-03-15T14:29:31.119Z,3.7
2023-03-15T14:32:33.100Z,2.5
2023-03-15T14:35:35.063Z,2.1
2023-03-15T14:38:36.974Z,2.6
2023-03-15T14:41:38.963Z,2.4
2023-03-15T14:44:40.879Z,2.1
2023-03-15T14:47:55.324Z,1.9
2023-03-15T14:50:44.996Z,2.5
2023-03-15T14:53:46.823Z,2.9
2023-03-15T14:56:48.777Z,1.8
2023-03-15T14:59:50.750Z,3
2023-03-15T15:02:52.685Z,3
2023-03-15T15:05:54.660Z,2.6
2023-03-15T15:08:56.617Z,1.7
2023-03-15T15:11:58.693Z,2.5
2023-03-15T15:15:00.613Z,2.3
2023-03-15T15:18:02.605Z,1.7
2023-03-15T15:21:04.556Z,2.2
2023-03-15T15:24:06.552Z,1.4
2023-03-15T15:27:08.571Z,1.6
2023-03-15T15:30:10.803Z,4.4
2023-03-15T15:33:12.574Z,2.7
2023-03-15T15:36:14.722Z,3.2
2023-03-15T15:39:16.635Z,1.5
2023-03-15T15:42:18.620Z,2.7
2023-03-15T15:45:20.559Z,2.3
2023-03-15T15:48:22.513Z,2.2
2023-03-15T15:51:24.497Z,3.8
2023-03-15T15:54:26.448Z,3.9
2023-03-15T15:57:28.450Z,2.2
2023-03-15T16:00:30.417Z,4.2
2023-03-15T16:03:32.359Z,3.9
2023-03-15T16:06:34.335Z,5.1
2023-03-15T16:09:39.105Z,3.2
2023-03-15T16:12:41.124Z,1.9
2023-03-15T16:15:43.164Z,1.5
2023-03-15T16:18:45.085Z,5.1
2023-03-15T16:21:47.030Z,3.3
2023-03-15T16:24:49.014Z,4.4
2023-03-15T16:27:50.974Z,2.7
2023-03-15T16:30:53.010Z,3.6
2023-03-15T16:33:54.899Z,3.4
2023-03-15T16:36:56.849Z,4.6
2023-03-15T16:39:58.825Z,2.5
2023-03-15T16:43:00.866Z,1.4
2023-03-15T16:46:02.799Z,2.4
2023-03-15T16:49:04.717Z,2.1
2023-03-15T16:52:06.675Z,4.3
2023-03-15T16:55:08.654Z,3.9
2023-03-15T16:58:10.611Z,3.5
2023-03-15T17:01:12.567Z,3.8
2023-03-15T17:04:14.667Z,4.4
2023-03-15T17:07:16.558Z,3.5
2023-03-15T17:10:18.506Z,2.8
2023-03-15T17:13:20.492Z,3.1
2023-03-15T17:16:22.496Z,2
2023-03-15T17:19:24.367Z,3.6
2023-03-15T17:22:26.363Z,5.9
2023-03-15T17:25:28.309Z,5.4
2023-03-15T17:28:30.279Z,1.7
2023-03-15T17:31:32.238Z,3.3
2023-03-15T17:34:34.177Z,5
2023-03-15T17:37:36.149Z,2.8
2023-03-15T17:40:38.134Z,2.9
2023-03-15T17:43:40.084Z,3.6
2023-03-15T17:46:42.095Z,4
2023-03-15T17:49:43.997Z,3.5
2023-03-15T17:52:45.953Z,3.3
2023-03-15T17:55:48.016Z,4.1
2023-03-15T17:58:49.974Z,4.3
2023-03-15T18:01:51.880Z,5.2
2023-03-15T18:04:53.868Z,3.4
2023-03-15T18:07:59.250Z,2.8
2023-03-15T18:10:57.808Z,4.4
2023-03-15T18:13:59.725Z,6.4
2023-03-15T18:17:01.688Z,4.1
2023-03-15T18:20:03.658Z,3.4
2023-03-15T18:23:05.648Z,4
2023-03-15T18:26:07.666Z,4.8
2023-03-15T18:29:09.588Z,4.7
2023-03-15T18:32:11.669Z,3.1
2023-03-15T18:35:13.539Z,5
2023-03-15T18:38:15.513Z,3.7
2023-03-15T18:41:19.811Z,3.8
2023-03-15T18:44:19.463Z,8.4
2023-03-15T18:47:21.403Z,6.7
2023-03-15T18:50:23.391Z,7.4
2023-03-15T18:53:25.325Z,6.3
2023-03-15T18:56:27.324Z,6
2023-03-15T18:59:29.267Z,5.1
2023-03-15T19:02:31.289Z,4.9
2023-03-15T19:05:33.224Z,4.9
2023-03-15T19:08:35.152Z,5.3
2023-03-15T19:11:37.128Z,5
2023-03-15T19:14:39.102Z,9.7
2023-03-15T19:17:41.042Z,10.3
2023-03-15T19:20:43.061Z,9.3
2023-03-15T19:23:45.017Z,7.3
2023-03-15T19:26:46.972Z,5.8
2023-03-15T19:29:48.910Z,7.2
2023-03-15T19:32:50.979Z,6.9
2023-03-15T19:35:53.037Z,6.8
2023-03-15T19:38:54.806Z,6.9
2023-03-15T19:41:56.805Z,7.3
2023-03-15T19:44:58.747Z,6.5
2023-03-15T19:48:00.893Z,8.7
2023-03-15T19:51:02.686Z,6.4
2023-03-15T19:54:04.639Z,5.7
2023-03-15T19:57:06.745Z,7.6
2023-03-15T20:00:08.561Z,6.4
2023-03-15T20:03:10.539Z,6.2
2023-03-15T20:06:12.551Z,7.1
2023-03-15T20:09:14.770Z,6.7
2023-03-15T20:12:16.437Z,5.5
2023-03-15T20:15:18.442Z,5.8
2023-03-15T20:18:20.447Z,6.5
2023-03-15T20:21:22.422Z,7.1
2023-03-15T20:24:24.362Z,6.3
2023-03-15T20:27:26.315Z,13.5
2023-03-15T20:30:28.249Z,8
2023-03-15T20:33:30.212Z,11.1
2023-03-15T20:36:33.460Z,8.5
2023-03-15T20:39:34.158Z,5.9
2023-03-15T20:42:36.149Z,7.2
2023-03-15T20:45:38.108Z,7.4
2023-03-15T20:48:40.101Z,6.3
2023-03-15T20:51:42.069Z,6.5
2023-03-15T20:54:44.033Z,5.9
2023-03-15T20:57:45.994Z,6.7
2023-03-15T21:00:48.011Z,5.7
2023-03-15T21:03:50.020Z,9.1
2023-03-15T21:06:51.918Z,8
2023-03-15T21:09:53.879Z,8.3
2023-03-15T21:12:55.833Z,9.5
2023-03-15T21:15:57.847Z,10.2
2023-03-15T21:18:59.824Z,8.3
2023-03-15T21:22:01.816Z,10.8
2023-03-15T21:25:03.640Z,12
2023-03-15T21:28:05.602Z,10.9
2023-03-15T21:31:07.589Z,9.6
2023-03-15T21:34:09.623Z,9.7
2023-03-15T21:37:11.533Z,9
2023-03-15T21:40:13.498Z,10.6
2023-03-15T21:43:15.500Z,8.8
2023-03-15T21:46:17.572Z,11.6
2023-03-15T21:49:19.399Z,11.8
2023-03-15T21:52:21.392Z,9.3
2023-03-15T21:55:23.326Z,13.7
2023-03-15T21:58:25.283Z,12.3
2023-03-15T22:01:27.285Z,11.3
2023-03-15T22:04:29.304Z,12.4
2023-03-15T22:07:31.232Z,16.7
2023-03-15T22:10:33.239Z,11.5
2023-03-15T22:13:35.157Z,10.7
2023-03-15T22:16:37.140Z,13.8
2023-03-15T22:19:39.117Z,11.5
2023-03-15T22:22:41.036Z,11.7
2023-03-15T22:25:42.996Z,12.4
2023-03-15T22:28:44.952Z,12.3
2023-03-15T22:31:46.903Z,12.7
2023-03-15T22:34:48.873Z,12.2
2023-03-15T22:37:50.838Z,12.5
2023-03-15T22:40:52.884Z,11.6
2023-03-15T22:43:54.848Z,16.7
2023-03-15T22:46:56.805Z,16.7
2023-03-15T22:49:58.744Z,17.1
2023-03-15T22:53:00.720Z,14.4
2023-03-15T22:56:02.642Z,18.5
2023-03-15T22:59:04.661Z,15.9
2023-03-15T23:02:06.595Z,17.8
2023-03-15T23:05:08.564Z,13.8
2023-03-15T23:08:10.522Z,14.9
2023-03-15T23:11:12.462Z,14.8
2023-03-15T23:14:14.473Z,13.6
2023-03-15T23:17:16.559Z,15.6
2023-03-15T23:20:18.414Z,15.2
2023-03-15T23:23:20.369Z,15.7
2023-03-15T23:26:22.374Z,16.8
2023-03-15T23:29:24.336Z,14.6
2023-03-15T23:32:26.426Z,13.8
2023-03-15T23:35:28.338Z,16.5
2023-03-15T23:38:30.286Z,15.2
2023-03-15T23:41:32.249Z,13.5
2023-03-15T23:44:34.241Z,14
2023-03-15T23:47:36.267Z,11.6
2023-03-15T23:50:38.141Z,12.4
2023-03-15T23:53:40.107Z,15.3
2023-03-15T23:56:42.105Z,13.7
2023-03-15T23:59:44.071Z,11.7
